createdAt,value
2022-08-09T00:00:16.670Z,9.219907
2022-08-09T00:06:18.995Z,9.122685
2022-08-09T00:06:23.131Z,9.122685
2022-08-09T00:10:21.357Z,9.178241
2022-08-09T00:15:16.707Z,9.152778
2022-08-09T00:20:16.751Z,9.137778
2022-08-09T00:25:23.091Z,9.145833
2022-08-09T00:30:26.674Z,9.051111
2022-08-09T00:35:17.046Z,9.013333
2022-08-09T00:40:17.525Z,8.930556
2022-08-09T00:45:16.949Z,8.875556
2022-08-09T00:50:17.055Z,8.840278
2022-08-09T00:56:03.304Z,8.673333
2022-08-09T01:00:21.028Z,8.608796
2022-08-09T01:05:21.809Z,8.620000
2022-08-09T01:10:16.738Z,8.555556
2022-08-09T01:15:17.648Z,8.497685
2022-08-09T01:20:16.694Z,8.560185
2022-08-09T01:25:19.013Z,8.497778
2022-08-09T01:30:35.494Z,8.504630
2022-08-09T01:35:29.160Z,8.592593
2022-08-09T01:40:23.232Z,8.551111
2022-08-09T01:45:16.770Z,8.462963
2022-08-09T01:50:16.750Z,8.384259
2022-08-09T01:55:16.844Z,8.365741
2022-08-09T02:00:34.952Z,8.275463
2022-08-09T02:05:16.676Z,8.120370
2022-08-09T02:10:16.710Z,8.092593
2022-08-09T02:15:17.243Z,8.099537
2022-08-09T02:20:25.116Z,8.092593
2022-08-09T02:25:16.986Z,8.097222
2022-08-09T02:30:17.103Z,8.043981
2022-08-09T02:35:17.669Z,7.951389
2022-08-09T02:40:18.593Z,7.946759
2022-08-09T02:45:16.725Z,7.895833
2022-08-09T02:50:16.701Z,7.881944
2022-08-09T02:55:20.590Z,7.944444
2022-08-09T03:00:25.639Z,7.844907
2022-08-09T03:05:16.907Z,7.777778
2022-08-09T03:10:16.654Z,7.828889
2022-08-09T03:15:16.716Z,7.766667
2022-08-09T03:20:16.644Z,7.634259
2022-08-09T03:25:56.884Z,7.662037
2022-08-09T03:30:29.877Z,7.627315
2022-08-09T03:35:24.776Z,7.562500
2022-08-09T03:40:17.831Z,7.634259
2022-08-09T03:45:16.838Z,7.490741
2022-08-09T03:50:18.874Z,7.543981
2022-08-09T03:55:16.637Z,7.506944
2022-08-09T04:00:16.991Z,7.456019
2022-08-09T04:05:26.799Z,7.581019
2022-08-09T04:10:20.556Z,7.685185
2022-08-09T04:15:29.296Z,7.731111
2022-08-09T04:20:16.710Z,7.775463
2022-08-09T04:25:16.572Z,7.814815
2022-08-09T04:30:16.656Z,7.958333
2022-08-09T04:35:16.742Z,8.189815
2022-08-09T04:40:28.849Z,8.511574
2022-08-09T04:45:20.597Z,8.712963
2022-08-09T04:50:16.668Z,9.050926
2022-08-09T04:55:16.747Z,9.287037
2022-08-09T05:00:17.157Z,9.645833
2022-08-09T05:05:31.292Z,10.113426
2022-08-09T05:10:16.680Z,10.444444
2022-08-09T05:15:38.344Z,10.701389
2022-08-09T05:20:16.728Z,11.032407
2022-08-09T05:25:16.556Z,11.405093
2022-08-09T05:30:19.380Z,11.729167
2022-08-09T05:35:16.621Z,12.055556
2022-08-09T05:40:16.692Z,12.333333
2022-08-09T05:45:16.773Z,12.687500
2022-08-09T05:50:25.765Z,13.131944
2022-08-09T05:55:20.897Z,13.581019
2022-08-09T06:00:16.841Z,14.120370
2022-08-09T06:05:17.099Z,14.581019
2022-08-09T06:10:18.020Z,14.976852
2022-08-09T06:15:16.723Z,15.400463
2022-08-09T06:20:18.348Z,16.020833
2022-08-09T06:25:17.147Z,16.567130
2022-08-09T06:30:16.884Z,17.138889
2022-08-09T06:35:16.684Z,17.701389
2022-08-09T06:40:23.873Z,18.039352
2022-08-09T06:46:05.218Z,18.412037
2022-08-09T06:50:19.279Z,18.828704
2022-08-09T06:55:16.785Z,19.217593
2022-08-09T07:00:55.411Z,19.678241
2022-08-09T07:05:16.535Z,19.967593
2022-08-09T07:10:29.442Z,20.208333
2022-08-09T07:15:53.995Z,20.368056
2022-08-09T07:16:41.579Z,20.368056
2022-08-09T07:20:16.613Z,20.564815
2022-08-09T07:25:16.758Z,20.939815
2022-08-09T07:30:16.621Z,21.201389
2022-08-09T07:35:16.610Z,21.293981
2022-08-09T07:40:17.238Z,21.780000
2022-08-09T07:45:23.692Z,22.126667
2022-08-09T07:50:16.540Z,22.516204
2022-08-09T07:55:16.595Z,22.277778
2022-08-09T08:00:20.844Z,22.453704
2022-08-09T08:05:18.517Z,22.710648
2022-08-09T08:10:18.317Z,22.881944
2022-08-09T08:15:17.311Z,23.449074
2022-08-09T08:20:16.604Z,23.914352
2022-08-09T08:25:16.594Z,23.909722
2022-08-09T08:30:16.630Z,23.826667
2022-08-09T08:35:18.236Z,23.935185
2022-08-09T08:40:16.657Z,24.243056
2022-08-09T08:45:16.728Z,24.467593
2022-08-09T08:50:18.080Z,24.567130
2022-08-09T08:55:23.072Z,24.750000
2022-08-09T09:00:20.751Z,24.891111
2022-08-09T09:05:16.506Z,25.171296
2022-08-09T09:10:16.804Z,25.145833
2022-08-09T09:15:28.230Z,25.270833
2022-08-09T09:20:16.674Z,25.030093
2022-08-09T09:26:05.066Z,25.740741
2022-08-09T09:30:38.231Z,25.618056
2022-08-09T09:35:17.784Z,25.613426
2022-08-09T09:40:17.789Z,25.858796
2022-08-09T09:45:25.753Z,26.236111
2022-08-09T09:50:17.256Z,26.553333
2022-08-09T09:55:32.573Z,26.382222
2022-08-09T10:00:16.538Z,26.504630
2022-08-09T10:05:16.518Z,26.465278
2022-08-09T10:10:18.581Z,26.733796
2022-08-09T10:15:17.559Z,26.344907
2022-08-09T10:20:16.580Z,26.837963
2022-08-09T10:25:16.471Z,26.571759
2022-08-09T10:35:16.632Z,27.196759
2022-08-09T10:40:35.108Z,26.951389
2022-08-09T10:45:16.832Z,27.206019
2022-08-09T10:50:16.531Z,27.525463
2022-08-09T10:55:16.536Z,27.682870
2022-08-09T11:00:16.510Z,27.236111
2022-08-09T11:05:24.640Z,27.743056
2022-08-09T11:10:16.522Z,27.813333
2022-08-09T11:15:18.978Z,27.511574
2022-08-09T11:20:22.417Z,26.381944
2022-08-09T11:25:16.786Z,25.995370
2022-08-09T11:30:32.757Z,25.726852
2022-08-09T11:35:16.499Z,25.713333
2022-08-09T11:40:17.954Z,26.046296
2022-08-09T11:45:16.520Z,26.585648
2022-08-09T11:50:53.252Z,26.995370
2022-08-09T11:55:16.508Z,26.422222
2022-08-09T12:00:17.937Z,26.162037
2022-08-09T12:05:17.845Z,26.016204
2022-08-09T12:10:38.677Z,25.851111
2022-08-09T12:15:22.170Z,26.004630
2022-08-09T12:20:21.534Z,26.155093
2022-08-09T12:25:16.438Z,26.034722
2022-08-09T12:30:36.760Z,26.266204
2022-08-09T12:35:21.597Z,26.629630
2022-08-09T12:40:16.470Z,26.437500
2022-08-09T12:45:34.787Z,26.127315
2022-08-09T12:50:16.435Z,25.946759
2022-08-09T12:56:12.272Z,25.870370
2022-08-09T13:00:16.566Z,26.615741
2022-08-09T13:05:16.596Z,26.627315
2022-08-09T13:10:16.454Z,27.648148
2022-08-09T13:15:16.950Z,27.766204
2022-08-09T13:20:22.851Z,27.539352
2022-08-09T13:25:16.439Z,27.217593
2022-08-09T13:30:50.691Z,27.104167
2022-08-09T13:32:15.269Z,27.104167
2022-08-09T13:35:16.525Z,28.004630
2022-08-09T13:41:54.455Z,28.166667
2022-08-09T13:41:55.412Z,28.166667
2022-08-09T13:45:16.543Z,27.629630
2022-08-09T13:50:30.723Z,27.615741
2022-08-09T13:55:17.788Z,27.861111
2022-08-09T14:00:16.455Z,27.451389
2022-08-09T14:05:57.031Z,27.858796
2022-08-09T14:10:17.357Z,27.685185
2022-08-09T14:16:06.752Z,27.219907
2022-08-09T14:20:16.485Z,26.657407
2022-08-09T14:25:16.635Z,26.293981
2022-08-09T14:30:41.306Z,26.152778
2022-08-09T14:35:16.500Z,26.173611
2022-08-09T14:40:16.611Z,26.703704
2022-08-09T14:46:46.363Z,27.282407
2022-08-09T14:46:51.326Z,27.282407
2022-08-09T14:50:17.528Z,27.335648
2022-08-09T14:55:20.424Z,27.074074
2022-08-09T15:00:16.744Z,26.935185
2022-08-09T15:05:17.074Z,27.333333
2022-08-09T15:10:16.891Z,27.539352
2022-08-09T15:15:16.482Z,27.631944
2022-08-09T15:21:53.694Z,27.868056
2022-08-09T15:22:00.929Z,27.868056
2022-08-09T15:25:16.478Z,27.918981
2022-08-09T15:30:56.598Z,27.770833
2022-08-09T15:35:17.864Z,27.319444
2022-08-09T15:40:19.861Z,26.750000
2022-08-09T15:45:16.507Z,26.715278
2022-08-09T15:50:16.883Z,27.039352
2022-08-09T15:55:16.530Z,26.909722
2022-08-09T16:00:21.890Z,26.655093
2022-08-09T16:05:16.437Z,26.409722
2022-08-09T16:10:38.620Z,26.266204
2022-08-09T16:16:10.909Z,26.025463
2022-08-09T16:20:16.504Z,25.474537
2022-08-09T16:25:16.552Z,25.087963
2022-08-09T16:30:28.623Z,24.745370
2022-08-09T16:35:53.389Z,24.664352
2022-08-09T16:40:20.614Z,24.655556
2022-08-09T16:45:16.851Z,24.331019
2022-08-09T16:50:29.950Z,24.486111
2022-08-09T16:55:18.113Z,24.666667
2022-08-09T17:00:16.567Z,24.858796
2022-08-09T17:05:19.640Z,24.576389
2022-08-09T17:10:16.468Z,24.041667
2022-08-09T17:15:31.394Z,24.011574
2022-08-09T17:20:33.280Z,24.064815
2022-08-09T17:25:16.491Z,23.625000
2022-08-09T17:30:16.427Z,23.303241
2022-08-09T17:35:16.751Z,22.974537
2022-08-09T17:40:18.143Z,22.613426
2022-08-09T17:45:27.380Z,22.446759
2022-08-09T17:50:24.701Z,22.408889
2022-08-09T17:55:16.649Z,21.900463
2022-08-09T18:00:16.596Z,21.643519
2022-08-09T18:05:16.278Z,21.104167
2022-08-09T18:10:16.368Z,20.666667
2022-08-09T18:15:16.378Z,20.210648
2022-08-09T18:20:59.400Z,19.712963
2022-08-09T18:25:16.335Z,19.407407
2022-08-09T18:30:42.421Z,19.210648
2022-08-09T18:35:16.387Z,18.858796
2022-08-09T18:40:16.356Z,18.384259
2022-08-09T18:46:44.922Z,17.913333
2022-08-09T18:46:50.842Z,17.913333
2022-08-09T18:50:16.579Z,17.620000
2022-08-09T18:55:16.708Z,17.185185
2022-08-09T19:00:20.513Z,16.803241
2022-08-09T19:05:28.762Z,16.442130
2022-08-09T19:10:17.724Z,16.157407
2022-08-09T19:15:16.530Z,15.953704
2022-08-09T19:20:16.336Z,15.828889
2022-08-09T19:25:41.378Z,15.618056
2022-08-09T19:30:22.962Z,15.340000
2022-08-09T19:35:16.383Z,15.125000
2022-08-09T19:40:19.197Z,15.000000
2022-08-09T19:45:16.568Z,14.971111
2022-08-09T19:50:49.070Z,14.916667
2022-08-09T19:55:16.588Z,14.812500
2022-08-09T20:00:16.540Z,14.675926
2022-08-09T20:05:17.020Z,14.629630
2022-08-09T20:10:17.616Z,14.729167
2022-08-09T20:16:32.750Z,14.525463
2022-08-09T20:16:33.818Z,14.525463
2022-08-09T20:20:16.571Z,14.303241
2022-08-09T20:25:22.882Z,14.011574
2022-08-09T20:30:17.887Z,13.863426
2022-08-09T20:35:16.337Z,13.928241
2022-08-09T20:40:18.989Z,13.826667
2022-08-09T20:46:00.038Z,13.673611
2022-08-09T20:50:47.054Z,13.479167
2022-08-09T20:55:16.340Z,13.328704
2022-08-09T21:00:19.844Z,13.075556
2022-08-09T21:05:57.206Z,12.888889
2022-08-09T21:10:16.509Z,12.784722
2022-08-09T21:15:16.524Z,12.625000
2022-08-09T21:20:22.831Z,12.571759
2022-08-09T21:25:16.321Z,12.511574
2022-08-09T21:30:16.295Z,12.395833
2022-08-09T21:35:16.356Z,12.238426
2022-08-09T21:40:22.179Z,12.124444
2022-08-09T21:45:17.500Z,12.086667
2022-08-09T21:50:17.663Z,12.048611
2022-08-09T21:55:16.411Z,11.967593
2022-08-09T22:00:16.269Z,11.904444
2022-08-09T22:05:22.460Z,11.831111
2022-08-09T22:10:22.067Z,11.717593
2022-08-09T22:15:16.880Z,11.680556
2022-08-09T22:20:17.086Z,11.599537
2022-08-09T22:26:08.429Z,11.500000
2022-08-09T22:30:31.387Z,11.484444
2022-08-09T22:36:02.020Z,11.388889
2022-08-09T22:40:20.112Z,11.379630
2022-08-09T22:48:10.961Z,11.293981
2022-08-09T22:48:15.519Z,11.293981
2022-08-09T22:48:16.873Z,11.293981
2022-08-09T22:50:16.283Z,11.303241
2022-08-09T22:55:21.785Z,11.307870
2022-08-09T23:00:16.345Z,11.143519
2022-08-09T23:05:16.325Z,10.953704
2022-08-09T23:10:16.283Z,10.956019
2022-08-09T23:15:16.436Z,10.930556
2022-08-09T23:20:16.244Z,10.812500
2022-08-09T23:25:16.340Z,10.729167
2022-08-09T23:30:16.383Z,10.722222
2022-08-09T23:35:16.425Z,10.650463
2022-08-09T23:40:16.263Z,10.664352
2022-08-09T23:45:36.357Z,10.530093
2022-08-09T23:50:16.280Z,10.476852
2022-08-09T23:55:17.923Z,10.456019
